Главная страница
METAR-TAF:

METAR-TAF

Аэропорты :

Гардермуэн

Осло, Норвегия

широта: 60-12N, долгота: 011-05E, высота над уровнем моря: 208 м

Текущие метеонаблюдения

Эта сводка был подготовлена 42 минут назад, в 00:50 UTC
Ветер 3 Узел от северный
Температура 6°C
Влажность 100%
Давление 1015 hPa
Видимость: 0700 м
туман

METAR: ENGM 160050Z 36003KT 0700 R19R/0700D R01R/1000N FG VV001 06/06 Q1015

Время: 03:32 (01:32 UTC)

Прогноз

Прогноз действительный с 16-го 00 UTC до 16-го 24 UTC
Ветер 5 Узел от северный
Видимость: 0200 м
на высоте 100 фута
туман
временами
С 16-го 00 UTC до 16-го 08 UTC
Видимость: 2000 м
Рассеянная облачность на высоте 200 фута
клочья тумана
изменения
С 16-го 08 UTC до 16-го 10 UTC
Видимость 10 км и более
Рассеянная облачность на высоте 2000 фута

TAF: ENGM 1600/1624 36005KT 0200 FG VV001 TEMPO 1600/1608 2000 BCFG BKN002 BECMG 1608/1610 9999 BKN020

Метеонаблюдения и прогнозы для более 4000 аэропортов (сводки METAR и TAF).

Имеющиеся станции представлены на карте желтыми и красными точками.

Чтобы увидеть название станции, наведите на нее мышь.

Затем щелкните, чтобы увидеть метеонаблюдения и метеопрогнозы.

Управление картой: чтобы увеличить масштаб, щелкните зеленые кнопки с черным крестиком; чтобы уменьшить масштаб, щелкните зеленую кнопку с тире; для просмотра соседних карт щелкайте зеленые стрелки.


METAR-TAF: